sensor_id;sensor_type;location;lat;lon;timestamp;P1;durP1;ratioP1;P2;durP2;ratioP2
16442;SDS011;8331;51.654;14.376;2023-03-13T00:02:16;1.83;;;1.73;;
16442;SDS011;8331;51.654;14.376;2023-03-13T00:04:43;2.37;;;2.00;;
16442;SDS011;8331;51.654;14.376;2023-03-13T00:07:09;3.43;;;1.80;;
16442;SDS011;8331;51.654;14.376;2023-03-13T00:09:36;2.03;;;1.67;;
16442;SDS011;8331;51.654;14.376;2023-03-13T00:12:03;2.60;;;1.93;;
16442;SDS011;8331;51.654;14.376;2023-03-13T00:14:30;3.37;;;2.00;;
16442;SDS011;8331;51.654;14.376;2023-03-13T00:16:56;2.67;;;1.93;;
16442;SDS011;8331;51.654;14.376;2023-03-13T00:19:23;4.43;;;1.90;;
16442;SDS011;8331;51.654;14.376;2023-03-13T00:21:49;5.33;;;1.90;;
16442;SDS011;8331;51.654;14.376;2023-03-13T00:24:16;3.07;;;1.90;;
16442;SDS011;8331;51.654;14.376;2023-03-13T00:26:42;4.50;;;2.07;;
16442;SDS011;8331;51.654;14.376;2023-03-13T00:29:09;4.20;;;2.13;;
16442;SDS011;8331;51.654;14.376;2023-03-13T00:31:35;4.57;;;1.97;;
16442;SDS011;8331;51.654;14.376;2023-03-13T00:34:02;7.80;;;2.60;;
16442;SDS011;8331;51.654;14.376;2023-03-13T00:36:31;4.10;;;2.00;;
16442;SDS011;8331;51.654;14.376;2023-03-13T00:39:00;4.03;;;2.30;;
16442;SDS011;8331;51.654;14.376;2023-03-13T00:41:28;5.73;;;2.40;;
16442;SDS011;8331;51.654;14.376;2023-03-13T00:43:55;3.37;;;1.90;;
16442;SDS011;8331;51.654;14.376;2023-03-13T00:46:22;3.07;;;2.20;;
16442;SDS011;8331;51.654;14.376;2023-03-13T00:48:50;3.63;;;2.30;;
16442;SDS011;8331;51.654;14.376;2023-03-13T00:51:18;2.70;;;2.37;;
16442;SDS011;8331;51.654;14.376;2023-03-13T00:53:46;5.83;;;2.50;;
16442;SDS011;8331;51.654;14.376;2023-03-13T00:56:13;2.47;;;2.03;;
16442;SDS011;8331;51.654;14.376;2023-03-13T00:58:41;3.83;;;2.23;;
16442;SDS011;8331;51.654;14.376;2023-03-13T01:01:12;4.83;;;2.63;;
16442;SDS011;8331;51.654;14.376;2023-03-13T01:03:39;4.30;;;2.30;;
16442;SDS011;8331;51.654;14.376;2023-03-13T01:06:08;5.40;;;3.10;;
16442;SDS011;8331;51.654;14.376;2023-03-13T01:08:35;4.43;;;2.47;;
16442;SDS011;8331;51.654;14.376;2023-03-13T01:11:03;4.13;;;2.40;;
16442;SDS011;8331;51.654;14.376;2023-03-13T01:13:30;3.43;;;2.30;;
16442;SDS011;8331;51.654;14.376;2023-03-13T01:16:04;5.40;;;2.53;;
16442;SDS011;8331;51.654;14.376;2023-03-13T01:18:32;6.80;;;2.50;;
16442;SDS011;8331;51.654;14.376;2023-03-13T01:20:59;5.53;;;2.67;;
16442;SDS011;8331;51.654;14.376;2023-03-13T01:23:26;6.77;;;2.80;;
16442;SDS011;8331;51.654;14.376;2023-03-13T01:25:56;5.13;;;3.33;;
16442;SDS011;8331;51.654;14.376;2023-03-13T01:28:23;4.50;;;2.63;;
16442;SDS011;8331;51.654;14.376;2023-03-13T01:30:50;5.37;;;3.00;;
16442;SDS011;8331;51.654;14.376;2023-03-13T01:33:17;5.70;;;3.17;;
16442;SDS011;8331;51.654;14.376;2023-03-13T01:35:44;6.00;;;3.20;;
16442;SDS011;8331;51.654;14.376;2023-03-13T01:38:12;8.67;;;3.10;;
16442;SDS011;8331;51.654;14.376;2023-03-13T01:40:43;9.07;;;3.17;;
16442;SDS011;8331;51.654;14.376;2023-03-13T01:43:18;6.63;;;3.30;;
16442;SDS011;8331;51.654;14.376;2023-03-13T01:48:23;6.90;;;2.83;;
16442;SDS011;8331;51.654;14.376;2023-03-13T01:50:52;7.27;;;3.13;;
16442;SDS011;8331;51.654;14.376;2023-03-13T01:53:25;7.50;;;3.00;;
16442;SDS011;8331;51.654;14.376;2023-03-13T01:55:53;6.00;;;2.53;;
16442;SDS011;8331;51.654;14.376;2023-03-13T01:58:21;4.87;;;3.13;;
16442;SDS011;8331;51.654;14.376;2023-03-13T02:00:48;4.80;;;2.87;;
16442;SDS011;8331;51.654;14.376;2023-03-13T02:03:16;5.63;;;2.80;;
16442;SDS011;8331;51.654;14.376;2023-03-13T02:05:43;9.10;;;3.20;;
16442;SDS011;8331;51.654;14.376;2023-03-13T02:10:42;7.07;;;3.23;;
16442;SDS011;8331;51.654;14.376;2023-03-13T02:13:11;6.83;;;2.97;;
16442;SDS011;8331;51.654;14.376;2023-03-13T02:15:40;7.23;;;3.03;;
16442;SDS011;8331;51.654;14.376;2023-03-13T02:18:07;8.60;;;3.77;;
16442;SDS011;8331;51.654;14.376;2023-03-13T02:20:34;10.03;;;3.30;;
16442;SDS011;8331;51.654;14.376;2023-03-13T02:28:00;7.07;;;3.43;;
16442;SDS011;8331;51.654;14.376;2023-03-13T02:30:30;5.00;;;2.93;;
16442;SDS011;8331;51.654;14.376;2023-03-13T02:32:58;8.67;;;3.60;;
16442;SDS011;8331;51.654;14.376;2023-03-13T02:35:26;7.63;;;3.00;;
16442;SDS011;8331;51.654;14.376;2023-03-13T02:37:54;9.87;;;3.10;;
16442;SDS011;8331;51.654;14.376;2023-03-13T02:40:30;9.40;;;3.40;;
16442;SDS011;8331;51.654;14.376;2023-03-13T02:42:59;6.37;;;3.27;;
16442;SDS011;8331;51.654;14.376;2023-03-13T02:45:27;12.03;;;3.73;;
16442;SDS011;8331;51.654;14.376;2023-03-13T02:47:54;9.60;;;4.27;;
16442;SDS011;8331;51.654;14.376;2023-03-13T02:50:20;7.90;;;3.10;;
16442;SDS011;8331;51.654;14.376;2023-03-13T02:53:07;6.13;;;3.07;;
16442;SDS011;8331;51.654;14.376;2023-03-13T02:55:34;8.80;;;3.43;;
16442;SDS011;8331;51.654;14.376;2023-03-13T02:58:03;10.07;;;4.03;;
16442;SDS011;8331;51.654;14.376;2023-03-13T03:00:33;11.30;;;3.43;;
16442;SDS011;8331;51.654;14.376;2023-03-13T03:03:01;8.17;;;3.40;;
16442;SDS011;8331;51.654;14.376;2023-03-13T03:05:27;7.30;;;3.40;;
16442;SDS011;8331;51.654;14.376;2023-03-13T03:07:55;8.80;;;3.60;;
16442;SDS011;8331;51.654;14.376;2023-03-13T03:10:22;3.27;;;2.90;;
16442;SDS011;8331;51.654;14.376;2023-03-13T03:12:50;6.87;;;3.27;;
16442;SDS011;8331;51.654;14.376;2023-03-13T03:15:16;6.70;;;3.53;;
16442;SDS011;8331;51.654;14.376;2023-03-13T03:17:45;11.67;;;3.77;;
16442;SDS011;8331;51.654;14.376;2023-03-13T03:20:13;10.00;;;3.50;;
16442;SDS011;8331;51.654;14.376;2023-03-13T03:22:41;11.83;;;3.57;;
16442;SDS011;8331;51.654;14.376;2023-03-13T03:25:08;6.90;;;3.23;;
16442;SDS011;8331;51.654;14.376;2023-03-13T03:27:35;10.40;;;4.23;;
16442;SDS011;8331;51.654;14.376;2023-03-13T03:30:05;8.20;;;3.53;;
16442;SDS011;8331;51.654;14.376;2023-03-13T03:32:33;12.83;;;3.80;;
16442;SDS011;8331;51.654;14.376;2023-03-13T03:35:00;9.73;;;3.73;;
16442;SDS011;8331;51.654;14.376;2023-03-13T03:37:27;11.63;;;4.13;;
16442;SDS011;8331;51.654;14.376;2023-03-13T03:39:53;10.27;;;3.77;;
16442;SDS011;8331;51.654;14.376;2023-03-13T03:42:20;8.97;;;4.00;;
16442;SDS011;8331;51.654;14.376;2023-03-13T03:44:47;10.57;;;3.80;;
16442;SDS011;8331;51.654;14.376;2023-03-13T03:47:14;9.60;;;3.33;;
16442;SDS011;8331;51.654;14.376;2023-03-13T03:49:43;11.37;;;4.53;;
16442;SDS011;8331;51.654;14.376;2023-03-13T03:52:11;8.90;;;3.60;;
16442;SDS011;8331;51.654;14.376;2023-03-13T03:54:40;11.13;;;4.33;;
16442;SDS011;8331;51.654;14.376;2023-03-13T03:57:07;9.13;;;3.73;;
16442;SDS011;8331;51.654;14.376;2023-03-13T03:59:35;14.20;;;4.78;;
16442;SDS011;8331;51.654;14.376;2023-03-13T04:02:05;8.97;;;3.50;;
16442;SDS011;8331;51.654;14.376;2023-03-13T04:04:32;9.73;;;3.20;;
16442;SDS011;8331;51.654;14.376;2023-03-13T04:07:21;10.53;;;3.77;;
16442;SDS011;8331;51.654;14.376;2023-03-13T04:09:49;7.37;;;3.13;;
16442;SDS011;8331;51.654;14.376;2023-03-13T04:12:24;10.70;;;3.50;;
16442;SDS011;8331;51.654;14.376;2023-03-13T04:14:52;8.50;;;3.50;;
16442;SDS011;8331;51.654;14.376;2023-03-13T04:17:19;11.33;;;3.33;;
16442;SDS011;8331;51.654;14.376;2023-03-13T04:19:46;11.27;;;4.13;;
16442;SDS011;8331;51.654;14.376;2023-03-13T04:22:13;11.10;;;3.40;;
16442;SDS011;8331;51.654;14.376;2023-03-13T04:24:45;12.37;;;3.37;;
16442;SDS011;8331;51.654;14.376;2023-03-13T04:27:12;10.43;;;3.23;;
16442;SDS011;8331;51.654;14.376;2023-03-13T04:29:40;13.73;;;3.77;;
16442;SDS011;8331;51.654;14.376;2023-03-13T04:32:22;11.17;;;3.60;;
16442;SDS011;8331;51.654;14.376;2023-03-13T04:35:06;7.77;;;3.40;;
16442;SDS011;8331;51.654;14.376;2023-03-13T04:37:46;7.17;;;3.10;;
16442;SDS011;8331;51.654;14.376;2023-03-13T04:40:37;13.93;;;3.87;;
16442;SDS011;8331;51.654;14.376;2023-03-13T04:43:10;11.93;;;3.10;;
16442;SDS011;8331;51.654;14.376;2023-03-13T04:45:52;11.93;;;3.70;;
16442;SDS011;8331;51.654;14.376;2023-03-13T04:48:57;12.70;;;3.47;;
16442;SDS011;8331;51.654;14.376;2023-03-13T04:51:37;14.43;;;3.67;;
16442;SDS011;8331;51.654;14.376;2023-03-13T04:54:14;7.43;;;3.23;;
16442;SDS011;8331;51.654;14.376;2023-03-13T04:56:56;7.33;;;3.03;;
16442;SDS011;8331;51.654;14.376;2023-03-13T04:59:34;11.73;;;3.27;;
16442;SDS011;8331;51.654;14.376;2023-03-13T05:02:21;6.37;;;3.20;;
16442;SDS011;8331;51.654;14.376;2023-03-13T05:05:04;9.07;;;3.07;;
16442;SDS011;8331;51.654;14.376;2023-03-13T05:07:49;9.80;;;3.43;;
16442;SDS011;8331;51.654;14.376;2023-03-13T05:10:48;12.83;;;3.43;;
16442;SDS011;8331;51.654;14.376;2023-03-13T05:13:28;11.00;;;3.47;;
16442;SDS011;8331;51.654;14.376;2023-03-13T05:16:23;9.87;;;3.00;;
16442;SDS011;8331;51.654;14.376;2023-03-13T05:19:08;13.80;;;3.77;;
16442;SDS011;8331;51.654;14.376;2023-03-13T05:21:55;8.17;;;3.20;;
16442;SDS011;8331;51.654;14.376;2023-03-13T05:24:40;10.53;;;3.20;;
16442;SDS011;8331;51.654;14.376;2023-03-13T05:27:29;7.30;;;3.20;;
16442;SDS011;8331;51.654;14.376;2023-03-13T05:30:20;11.90;;;3.20;;
16442;SDS011;8331;51.654;14.376;2023-03-13T05:33:08;8.23;;;3.17;;
16442;SDS011;8331;51.654;14.376;2023-03-13T05:36:06;8.77;;;3.07;;
16442;SDS011;8331;51.654;14.376;2023-03-13T05:38:54;7.77;;;2.63;;
16442;SDS011;8331;51.654;14.376;2023-03-13T05:41:36;6.60;;;2.80;;
16442;SDS011;8331;51.654;14.376;2023-03-13T05:44:26;8.33;;;3.40;;
16442;SDS011;8331;51.654;14.376;2023-03-13T05:46:56;7.53;;;3.07;;
16442;SDS011;8331;51.654;14.376;2023-03-13T05:49:25;13.47;;;3.63;;
16442;SDS011;8331;51.654;14.376;2023-03-13T05:52:03;8.00;;;3.27;;
16442;SDS011;8331;51.654;14.376;2023-03-13T05:55:08;8.83;;;3.40;;
16442;SDS011;8331;51.654;14.376;2023-03-13T05:58:04;9.73;;;3.27;;
16442;SDS011;8331;51.654;14.376;2023-03-13T06:01:09;6.90;;;3.03;;
16442;SDS011;8331;51.654;14.376;2023-03-13T06:04:00;10.63;;;3.33;;
16442;SDS011;8331;51.654;14.376;2023-03-13T06:06:28;6.67;;;2.90;;
16442;SDS011;8331;51.654;14.376;2023-03-13T06:08:55;13.67;;;3.90;;
16442;SDS011;8331;51.654;14.376;2023-03-13T06:11:25;11.40;;;2.83;;
16442;SDS011;8331;51.654;14.376;2023-03-13T06:13:52;11.63;;;3.10;;
16442;SDS011;8331;51.654;14.376;2023-03-13T06:16:45;8.57;;;3.07;;
16442;SDS011;8331;51.654;14.376;2023-03-13T06:19:17;6.40;;;3.10;;
16442;SDS011;8331;51.654;14.376;2023-03-13T06:21:44;10.73;;;3.00;;
16442;SDS011;8331;51.654;14.376;2023-03-13T06:24:10;11.60;;;3.27;;
16442;SDS011;8331;51.654;14.376;2023-03-13T06:26:37;9.03;;;3.43;;
16442;SDS011;8331;51.654;14.376;2023-03-13T06:29:03;7.40;;;3.17;;
16442;SDS011;8331;51.654;14.376;2023-03-13T06:31:30;13.10;;;3.80;;
16442;SDS011;8331;51.654;14.376;2023-03-13T06:33:57;14.83;;;3.93;;
16442;SDS011;8331;51.654;14.376;2023-03-13T06:36:24;9.63;;;3.10;;
16442;SDS011;8331;51.654;14.376;2023-03-13T06:38:50;8.30;;;2.70;;
16442;SDS011;8331;51.654;14.376;2023-03-13T06:41:17;10.53;;;3.50;;
16442;SDS011;8331;51.654;14.376;2023-03-13T06:43:44;8.23;;;2.97;;
16442;SDS011;8331;51.654;14.376;2023-03-13T06:46:18;7.33;;;2.70;;
16442;SDS011;8331;51.654;14.376;2023-03-13T06:48:45;14.23;;;3.00;;
16442;SDS011;8331;51.654;14.376;2023-03-13T06:51:13;12.60;;;3.60;;
16442;SDS011;8331;51.654;14.376;2023-03-13T06:53:39;10.87;;;3.20;;
16442;SDS011;8331;51.654;14.376;2023-03-13T06:56:06;8.07;;;3.30;;
16442;SDS011;8331;51.654;14.376;2023-03-13T06:58:33;10.10;;;3.40;;
16442;SDS011;8331;51.654;14.376;2023-03-13T07:01:10;13.13;;;4.00;;
16442;SDS011;8331;51.654;14.376;2023-03-13T07:03:38;12.57;;;4.00;;
16442;SDS011;8331;51.654;14.376;2023-03-13T07:06:07;10.33;;;4.70;;
16442;SDS011;8331;51.654;14.376;2023-03-13T07:08:34;24.20;;;9.70;;
16442;SDS011;8331;51.654;14.376;2023-03-13T07:11:02;12.20;;;7.83;;
16442;SDS011;8331;51.654;14.376;2023-03-13T07:13:29;11.63;;;5.30;;
16442;SDS011;8331;51.654;14.376;2023-03-13T07:15:59;11.20;;;4.30;;
16442;SDS011;8331;51.654;14.376;2023-03-13T07:18:26;14.37;;;5.13;;
16442;SDS011;8331;51.654;14.376;2023-03-13T07:20:53;11.90;;;4.77;;
16442;SDS011;8331;51.654;14.376;2023-03-13T07:23:21;13.80;;;4.80;;
16442;SDS011;8331;51.654;14.376;2023-03-13T07:28:20;14.97;;;5.63;;
16442;SDS011;8331;51.654;14.376;2023-03-13T07:30:47;11.40;;;5.03;;
16442;SDS011;8331;51.654;14.376;2023-03-13T07:33:14;16.87;;;8.67;;
16442;SDS011;8331;51.654;14.376;2023-03-13T07:35:46;15.70;;;9.27;;
16442;SDS011;8331;51.654;14.376;2023-03-13T07:38:12;14.40;;;6.00;;
16442;SDS011;8331;51.654;14.376;2023-03-13T07:40:39;13.67;;;7.00;;
16442;SDS011;8331;51.654;14.376;2023-03-13T07:43:05;15.93;;;8.60;;
16442;SDS011;8331;51.654;14.376;2023-03-13T07:45:32;12.20;;;6.03;;
16442;SDS011;8331;51.654;14.376;2023-03-13T07:47:58;16.03;;;6.13;;
16442;SDS011;8331;51.654;14.376;2023-03-13T07:50:25;10.67;;;6.20;;
16442;SDS011;8331;51.654;14.376;2023-03-13T07:52:51;11.07;;;6.20;;
16442;SDS011;8331;51.654;14.376;2023-03-13T07:55:18;12.97;;;6.20;;
16442;SDS011;8331;51.654;14.376;2023-03-13T07:57:45;8.60;;;5.60;;
16442;SDS011;8331;51.654;14.376;2023-03-13T08:00:11;12.97;;;6.33;;
16442;SDS011;8331;51.654;14.376;2023-03-13T08:02:41;13.17;;;5.70;;
16442;SDS011;8331;51.654;14.376;2023-03-13T08:05:08;13.03;;;6.13;;
16442;SDS011;8331;51.654;14.376;2023-03-13T08:07:35;9.87;;;6.90;;
16442;SDS011;8331;51.654;14.376;2023-03-13T08:10:02;16.13;;;8.53;;
16442;SDS011;8331;51.654;14.376;2023-03-13T08:12:28;12.93;;;8.03;;
16442;SDS011;8331;51.654;14.376;2023-03-13T08:14:55;11.17;;;6.17;;
16442;SDS011;8331;51.654;14.376;2023-03-13T08:17:22;11.53;;;6.17;;
16442;SDS011;8331;51.654;14.376;2023-03-13T08:19:48;8.00;;;6.20;;
16442;SDS011;8331;51.654;14.376;2023-03-13T08:22:15;13.77;;;7.40;;
16442;SDS011;8331;51.654;14.376;2023-03-13T08:24:41;13.63;;;7.50;;
16442;SDS011;8331;51.654;14.376;2023-03-13T08:27:08;8.87;;;6.50;;
16442;SDS011;8331;51.654;14.376;2023-03-13T08:29:34;13.00;;;6.90;;
16442;SDS011;8331;51.654;14.376;2023-03-13T08:32:01;13.07;;;6.70;;
16442;SDS011;8331;51.654;14.376;2023-03-13T08:34:28;9.60;;;6.90;;
16442;SDS011;8331;51.654;14.376;2023-03-13T08:36:54;11.50;;;6.70;;
16442;SDS011;8331;51.654;14.376;2023-03-13T08:39:22;11.87;;;6.93;;
16442;SDS011;8331;51.654;14.376;2023-03-13T08:41:49;10.23;;;7.23;;
16442;SDS011;8331;51.654;14.376;2023-03-13T08:44:16;13.43;;;6.60;;
16442;SDS011;8331;51.654;14.376;2023-03-13T08:46:43;14.07;;;7.00;;
16442;SDS011;8331;51.654;14.376;2023-03-13T08:49:10;10.93;;;7.20;;
16442;SDS011;8331;51.654;14.376;2023-03-13T08:51:37;14.93;;;7.37;;
16442;SDS011;8331;51.654;14.376;2023-03-13T08:54:04;11.77;;;8.40;;
16442;SDS011;8331;51.654;14.376;2023-03-13T08:56:32;15.50;;;8.37;;
16442;SDS011;8331;51.654;14.376;2023-03-13T08:58:59;9.23;;;7.27;;
16442;SDS011;8331;51.654;14.376;2023-03-13T09:01:27;13.60;;;7.53;;
16442;SDS011;8331;51.654;14.376;2023-03-13T09:03:54;9.97;;;7.23;;
16442;SDS011;8331;51.654;14.376;2023-03-13T09:06:21;11.77;;;7.47;;
16442;SDS011;8331;51.654;14.376;2023-03-13T09:08:48;17.57;;;8.90;;
16442;SDS011;8331;51.654;14.376;2023-03-13T09:11:16;12.30;;;7.40;;
16442;SDS011;8331;51.654;14.376;2023-03-13T09:13:44;14.23;;;8.07;;
16442;SDS011;8331;51.654;14.376;2023-03-13T09:16:12;11.20;;;8.33;;
16442;SDS011;8331;51.654;14.376;2023-03-13T09:18:39;13.47;;;7.70;;
16442;SDS011;8331;51.654;14.376;2023-03-13T09:21:07;15.13;;;9.20;;
16442;SDS011;8331;51.654;14.376;2023-03-13T09:23:34;15.17;;;9.33;;
16442;SDS011;8331;51.654;14.376;2023-03-13T09:26:00;13.10;;;8.90;;
16442;SDS011;8331;51.654;14.376;2023-03-13T09:28:27;15.67;;;8.87;;
16442;SDS011;8331;51.654;14.376;2023-03-13T09:30:54;11.53;;;8.07;;
16442;SDS011;8331;51.654;14.376;2023-03-13T09:33:21;14.07;;;8.30;;
16442;SDS011;8331;51.654;14.376;2023-03-13T09:35:49;10.90;;;8.17;;
16442;SDS011;8331;51.654;14.376;2023-03-13T09:38:17;12.67;;;8.60;;
16442;SDS011;8331;51.654;14.376;2023-03-13T09:40:44;14.17;;;8.30;;
16442;SDS011;8331;51.654;14.376;2023-03-13T09:45:59;11.77;;;8.40;;
16442;SDS011;8331;51.654;14.376;2023-03-13T09:48:28;13.90;;;8.60;;
16442;SDS011;8331;51.654;14.376;2023-03-13T09:51:04;12.80;;;8.03;;
16442;SDS011;8331;51.654;14.376;2023-03-13T09:53:42;12.83;;;8.03;;
16442;SDS011;8331;51.654;14.376;2023-03-13T09:56:15;13.00;;;8.07;;
16442;SDS011;8331;51.654;14.376;2023-03-13T09:58:46;12.93;;;8.07;;
16442;SDS011;8331;51.654;14.376;2023-03-13T10:01:15;10.67;;;7.57;;
16442;SDS011;8331;51.654;14.376;2023-03-13T10:03:47;9.33;;;7.70;;
16442;SDS011;8331;51.654;14.376;2023-03-13T10:06:18;14.20;;;7.63;;
16442;SDS011;8331;51.654;14.376;2023-03-13T10:08:45;10.20;;;6.93;;
16442;SDS011;8331;51.654;14.376;2023-03-13T10:11:17;16.50;;;7.40;;
16442;SDS011;8331;51.654;14.376;2023-03-13T10:16:37;8.07;;;6.63;;
16442;SDS011;8331;51.654;14.376;2023-03-13T10:19:11;10.47;;;6.40;;
16442;SDS011;8331;51.654;14.376;2023-03-13T10:21:39;8.63;;;6.03;;
16442;SDS011;8331;51.654;14.376;2023-03-13T10:26:48;11.30;;;6.50;;
16442;SDS011;8331;51.654;14.376;2023-03-13T10:29:23;9.80;;;6.47;;
16442;SDS011;8331;51.654;14.376;2023-03-13T10:31:53;6.90;;;6.23;;
16442;SDS011;8331;51.654;14.376;2023-03-13T10:34:21;11.10;;;6.33;;
16442;SDS011;8331;51.654;14.376;2023-03-13T10:36:48;9.33;;;7.03;;
16442;SDS011;8331;51.654;14.376;2023-03-13T10:39:17;9.00;;;6.70;;
16442;SDS011;8331;51.654;14.376;2023-03-13T10:41:44;5.87;;;5.37;;
16442;SDS011;8331;51.654;14.376;2023-03-13T10:46:41;7.40;;;5.67;;
16442;SDS011;8331;51.654;14.376;2023-03-13T10:49:15;6.57;;;5.20;;
16442;SDS011;8331;51.654;14.376;2023-03-13T10:51:56;8.03;;;5.40;;
16442;SDS011;8331;51.654;14.376;2023-03-13T10:54:30;8.73;;;4.47;;
16442;SDS011;8331;51.654;14.376;2023-03-13T10:57:07;5.73;;;4.53;;
16442;SDS011;8331;51.654;14.376;2023-03-13T10:59:38;6.93;;;4.50;;
16442;SDS011;8331;51.654;14.376;2023-03-13T11:04:50;6.27;;;4.53;;
16442;SDS011;8331;51.654;14.376;2023-03-13T11:07:27;5.77;;;3.83;;
16442;SDS011;8331;51.654;14.376;2023-03-13T11:09:56;4.90;;;3.40;;
16442;SDS011;8331;51.654;14.376;2023-03-13T11:12:23;3.80;;;3.40;;
16442;SDS011;8331;51.654;14.376;2023-03-13T11:14:55;6.17;;;3.70;;
16442;SDS011;8331;51.654;14.376;2023-03-13T11:17:37;7.67;;;4.20;;
16442;SDS011;8331;51.654;14.376;2023-03-13T11:25:02;4.20;;;3.80;;
16442;SDS011;8331;51.654;14.376;2023-03-13T11:35:10;4.67;;;3.40;;
16442;SDS011;8331;51.654;14.376;2023-03-13T11:37:41;5.77;;;5.27;;
16442;SDS011;8331;51.654;14.376;2023-03-13T11:40:17;4.23;;;3.43;;
16442;SDS011;8331;51.654;14.376;2023-03-13T11:56:46;5.03;;;4.40;;
16442;SDS011;8331;51.654;14.376;2023-03-13T12:01:46;2.87;;;2.47;;
16442;SDS011;8331;51.654;14.376;2023-03-13T12:04:24;3.17;;;2.50;;
16442;SDS011;8331;51.654;14.376;2023-03-13T12:06:57;1.80;;;1.70;;
16442;SDS011;8331;51.654;14.376;2023-03-13T12:09:25;3.77;;;3.33;;
16442;SDS011;8331;51.654;14.376;2023-03-13T12:12:00;3.53;;;2.27;;
16442;SDS011;8331;51.654;14.376;2023-03-13T12:16:59;2.70;;;1.60;;
16442;SDS011;8331;51.654;14.376;2023-03-13T12:22:22;2.80;;;2.60;;
16442;SDS011;8331;51.654;14.376;2023-03-13T12:25:01;1.70;;;1.60;;
16442;SDS011;8331;51.654;14.376;2023-03-13T12:27:32;6.53;;;5.93;;
16442;SDS011;8331;51.654;14.376;2023-03-13T12:35:25;1.70;;;1.60;;
16442;SDS011;8331;51.654;14.376;2023-03-13T12:37:52;5.60;;;5.10;;
16442;SDS011;8331;51.654;14.376;2023-03-13T12:40:22;1.63;;;1.30;;
16442;SDS011;8331;51.654;14.376;2023-03-13T12:43:00;0.90;;;0.90;;
16442;SDS011;8331;51.654;14.376;2023-03-13T12:45:28;9.40;;;7.82;;
16442;SDS011;8331;51.654;14.376;2023-03-13T12:48:18;2.87;;;2.53;;
16442;SDS011;8331;51.654;14.376;2023-03-13T12:50:44;1.23;;;1.20;;
16442;SDS011;8331;51.654;14.376;2023-03-13T12:56:06;1.20;;;1.10;;
16442;SDS011;8331;51.654;14.376;2023-03-13T13:03:57;5.77;;;4.03;;
16442;SDS011;8331;51.654;14.376;2023-03-13T13:06:26;4.90;;;3.30;;
16442;SDS011;8331;51.654;14.376;2023-03-13T13:09:07;1.73;;;1.10;;
16442;SDS011;8331;51.654;14.376;2023-03-13T13:16:43;0.90;;;0.90;;
16442;SDS011;8331;51.654;14.376;2023-03-13T13:19:56;0.80;;;0.80;;
16442;SDS011;8331;51.654;14.376;2023-03-13T13:24:50;2.30;;;1.10;;
16442;SDS011;8331;51.654;14.376;2023-03-13T13:30:03;0.80;;;0.80;;
16442;SDS011;8331;51.654;14.376;2023-03-13T13:32:52;1.23;;;1.00;;
16442;SDS011;8331;51.654;14.376;2023-03-13T13:37:46;0.80;;;0.80;;
16442;SDS011;8331;51.654;14.376;2023-03-13T13:47:44;1.93;;;0.93;;
16442;SDS011;8331;51.654;14.376;2023-03-13T13:50:21;0.90;;;0.90;;
16442;SDS011;8331;51.654;14.376;2023-03-13T13:52:48;0.73;;;0.73;;
16442;SDS011;8331;51.654;14.376;2023-03-13T13:58:04;1.07;;;0.97;;
16442;SDS011;8331;51.654;14.376;2023-03-13T14:00:41;0.90;;;0.90;;
16442;SDS011;8331;51.654;14.376;2023-03-13T14:03:20;7.43;;;1.33;;
16442;SDS011;8331;51.654;14.376;2023-03-13T14:05:48;7.87;;;4.90;;
16442;SDS011;8331;51.654;14.376;2023-03-13T14:08:28;1.00;;;1.00;;
16442;SDS011;8331;51.654;14.376;2023-03-13T14:11:04;2.40;;;2.30;;
16442;SDS011;8331;51.654;14.376;2023-03-13T14:13:33;2.43;;;1.97;;
16442;SDS011;8331;51.654;14.376;2023-03-13T14:16:09;0.90;;;0.90;;
16442;SDS011;8331;51.654;14.376;2023-03-13T14:18:40;4.03;;;1.17;;
16442;SDS011;8331;51.654;14.376;2023-03-13T14:21:07;1.23;;;1.20;;
16442;SDS011;8331;51.654;14.376;2023-03-13T14:23:40;1.93;;;1.30;;
16442;SDS011;8331;51.654;14.376;2023-03-13T14:26:11;1.50;;;1.40;;
16442;SDS011;8331;51.654;14.376;2023-03-13T14:28:39;2.43;;;1.40;;
16442;SDS011;8331;51.654;14.376;2023-03-13T14:31:07;1.20;;;1.20;;
16442;SDS011;8331;51.654;14.376;2023-03-13T14:33:34;1.37;;;0.90;;
16442;SDS011;8331;51.654;14.376;2023-03-13T14:36:01;1.50;;;0.93;;
16442;SDS011;8331;51.654;14.376;2023-03-13T14:38:28;4.23;;;3.20;;
16442;SDS011;8331;51.654;14.376;2023-03-13T14:40:55;1.70;;;1.17;;
16442;SDS011;8331;51.654;14.376;2023-03-13T14:43:24;7.47;;;5.23;;
16442;SDS011;8331;51.654;14.376;2023-03-13T14:45:53;0.93;;;0.93;;
16442;SDS011;8331;51.654;14.376;2023-03-13T14:48:26;2.03;;;1.83;;
16442;SDS011;8331;51.654;14.376;2023-03-13T14:50:53;3.50;;;3.20;;
16442;SDS011;8331;51.654;14.376;2023-03-13T14:53:40;1.50;;;1.20;;
16442;SDS011;8331;51.654;14.376;2023-03-13T14:56:18;1.30;;;1.00;;
16442;SDS011;8331;51.654;14.376;2023-03-13T14:58:45;2.47;;;1.50;;
16442;SDS011;8331;51.654;14.376;2023-03-13T15:01:25;1.90;;;1.80;;
16442;SDS011;8331;51.654;14.376;2023-03-13T15:03:53;2.90;;;2.23;;
16442;SDS011;8331;51.654;14.376;2023-03-13T15:06:21;10.97;;;9.77;;
16442;SDS011;8331;51.654;14.376;2023-03-13T15:08:49;2.33;;;2.13;;
16442;SDS011;8331;51.654;14.376;2023-03-13T15:11:33;2.47;;;1.30;;
16442;SDS011;8331;51.654;14.376;2023-03-13T15:14:00;5.33;;;4.83;;
16442;SDS011;8331;51.654;14.376;2023-03-13T15:16:27;6.87;;;6.17;;
16442;SDS011;8331;51.654;14.376;2023-03-13T15:18:54;1.70;;;1.60;;
16442;SDS011;8331;51.654;14.376;2023-03-13T15:21:25;3.20;;;1.53;;
16442;SDS011;8331;51.654;14.376;2023-03-13T15:23:57;1.60;;;1.40;;
16442;SDS011;8331;51.654;14.376;2023-03-13T15:26:25;1.30;;;1.20;;
16442;SDS011;8331;51.654;14.376;2023-03-13T15:28:52;1.10;;;1.00;;
16442;SDS011;8331;51.654;14.376;2023-03-13T15:31:19;2.23;;;1.00;;
16442;SDS011;8331;51.654;14.376;2023-03-13T15:33:46;0.90;;;0.90;;
16442;SDS011;8331;51.654;14.376;2023-03-13T15:36:13;0.93;;;0.93;;
16442;SDS011;8331;51.654;14.376;2023-03-13T15:38:40;2.33;;;0.97;;
16442;SDS011;8331;51.654;14.376;2023-03-13T15:41:07;1.13;;;1.00;;
16442;SDS011;8331;51.654;14.376;2023-03-13T15:43:34;1.90;;;1.00;;
16442;SDS011;8331;51.654;14.376;2023-03-13T15:46:01;1.10;;;1.10;;
16442;SDS011;8331;51.654;14.376;2023-03-13T15:48:31;1.53;;;1.13;;
16442;SDS011;8331;51.654;14.376;2023-03-13T15:50:58;1.13;;;1.03;;
16442;SDS011;8331;51.654;14.376;2023-03-13T15:53:29;0.90;;;0.90;;
16442;SDS011;8331;51.654;14.376;2023-03-13T15:55:57;0.90;;;0.90;;
16442;SDS011;8331;51.654;14.376;2023-03-13T15:58:24;1.20;;;1.10;;
16442;SDS011;8331;51.654;14.376;2023-03-13T16:00:51;1.07;;;0.97;;
16442;SDS011;8331;51.654;14.376;2023-03-13T16:03:22;1.10;;;1.00;;
16442;SDS011;8331;51.654;14.376;2023-03-13T16:05:52;1.37;;;1.10;;
16442;SDS011;8331;51.654;14.376;2023-03-13T16:08:20;2.73;;;1.30;;
16442;SDS011;8331;51.654;14.376;2023-03-13T16:11:01;1.73;;;1.10;;
16442;SDS011;8331;51.654;14.376;2023-03-13T16:13:27;1.20;;;1.10;;
16442;SDS011;8331;51.654;14.376;2023-03-13T16:15:54;1.10;;;1.10;;
16442;SDS011;8331;51.654;14.376;2023-03-13T16:18:22;1.30;;;1.20;;
16442;SDS011;8331;51.654;14.376;2023-03-13T16:20:51;1.23;;;1.17;;
16442;SDS011;8331;51.654;14.376;2023-03-13T16:23:17;1.07;;;0.93;;
16442;SDS011;8331;51.654;14.376;2023-03-13T16:25:44;1.53;;;1.27;;
16442;SDS011;8331;51.654;14.376;2023-03-13T16:28:11;1.40;;;1.20;;
16442;SDS011;8331;51.654;14.376;2023-03-13T16:30:38;1.47;;;1.37;;
16442;SDS011;8331;51.654;14.376;2023-03-13T16:33:13;1.40;;;1.30;;
16442;SDS011;8331;51.654;14.376;2023-03-13T16:35:39;1.10;;;1.10;;
16442;SDS011;8331;51.654;14.376;2023-03-13T16:38:08;1.90;;;1.10;;
16442;SDS011;8331;51.654;14.376;2023-03-13T16:40:35;1.53;;;1.30;;
16442;SDS011;8331;51.654;14.376;2023-03-13T16:43:02;1.83;;;1.20;;